Time;durP1;ratioP1;P1;durP2;ratioP2;P2;SDS_P1;SDS_P2;PMS_P1;PMS_P2;Temp;Humidity;BMP_temperature;BMP_pressure;BME280_temperature;BME280_humidity;BME280_pressure;Samples;Min_cycle;Max_cycle;Signal;HPM_P1;HPM_P2
2022/01/27 00:05:35;;;;;;;10.95;6.78;;;16.50;54.90;;;;;;5113637;28;20072;-78
2022/01/27 00:12:59;;;;;;;12.80;6.88;;;16.50;54.80;;;;;;5113673;28;20031;-78
2022/01/27 00:15:31;;;;;;;12.98;7.03;;;16.50;54.70;;;;;;5113400;28;20027;-79
2022/01/27 00:18:01;;;;;;;12.57;7.15;;;16.40;54.60;;;;;;5113417;28;20059;-78
2022/01/27 00:20:27;;;;;;;14.93;7.38;;;16.40;54.60;;;;;;5113535;28;20064;-78
2022/01/27 00:22:52;;;;;;;12.35;6.45;;;16.40;54.60;;;;;;5113705;28;20098;-76
2022/01/27 00:25:18;;;;;;;11.45;7.55;;;16.40;54.60;;;;;;5113144;28;20035;-74
2022/01/27 00:27:44;;;;;;;12.32;6.80;;;16.40;54.60;;;;;;5113481;28;20564;-74
2022/01/27 00:30:10;;;;;;;12.20;6.80;;;16.40;54.50;;;;;;5122423;27;20031;-78
2022/01/27 00:32:37;;;;;;;14.93;7.22;;;16.40;54.60;;;;;;5133710;27;20030;-78
2022/01/27 00:35:05;;;;;;;12.27;6.53;;;16.40;54.50;;;;;;5134105;27;20503;-78
2022/01/27 00:37:31;;;;;;;12.13;7.03;;;16.40;54.50;;;;;;5133676;27;20023;-80
2022/01/27 00:39:56;;;;;;;9.07;6.43;;;16.40;54.50;;;;;;5133895;27;20084;-78
2022/01/27 00:42:24;;;;;;;11.65;7.00;;;16.40;54.40;;;;;;5133509;27;20547;-78
2022/01/27 00:44:49;;;;;;;11.85;7.07;;;16.40;54.30;;;;;;5133714;27;20073;-78
2022/01/27 00:47:16;;;;;;;10.40;6.50;;;16.40;54.30;;;;;;5115014;27;20047;-76
2022/01/27 00:49:41;;;;;;;12.48;6.93;;;16.40;54.20;;;;;;5133953;27;20031;-75
2022/01/27 00:52:11;;;;;;;10.57;6.53;;;16.40;54.20;;;;;;5133621;27;20386;-75
2022/01/27 00:54:37;;;;;;;13.50;7.15;;;16.40;54.20;;;;;;5133177;27;20164;-75
2022/01/27 00:59:51;;;;;;;11.27;6.80;;;16.40;54.20;;;;;;5129341;27;20328;-74
2022/01/27 01:04:47;;;;;;;11.98;7.28;;;16.40;54.20;;;;;;5132516;27;20535;-78
2022/01/27 01:07:13;;;;;;;13.35;7.15;;;16.40;54.20;;;;;;5130041;27;20026;-79
2022/01/27 01:33:12;;;;;;;11.38;6.55;;;16.40;53.80;;;;;;5132697;27;20015;-74
2022/01/27 01:36:00;;;;;;;10.63;6.80;;;16.40;53.80;;;;;;5132526;27;20065;-78
2022/01/27 01:38:26;;;;;;;11.90;7.03;;;16.40;53.80;;;;;;5132044;27;20026;-75
2022/01/27 01:40:53;;;;;;;10.93;6.35;;;16.40;53.80;;;;;;5132538;27;20019;-79
2022/01/27 01:43:21;;;;;;;9.00;6.18;;;;;;;;;;5132288;27;20469;-79
2022/01/27 01:45:47;;;;;;;9.23;6.57;;;;;;;;;;5132678;27;20059;-77
2022/01/27 01:48:15;;;;;;;10.25;6.35;;;;;;;;;;5132926;27;20027;-79
2022/01/27 01:50:42;;;;;;;10.50;6.43;;;;;;;;;;5132914;27;20019;-81
2022/01/27 01:53:09;;;;;;;10.50;6.22;;;;;;;;;;5132432;27;20102;-80
2022/01/27 01:55:35;;;;;;;10.55;6.18;;;;;;;;;;5132307;27;20106;-78
2022/01/27 01:58:01;;;;;;;10.30;6.80;;;;;;;;;;5132454;27;20019;-75
2022/01/27 02:00:28;;;;;;;9.40;6.43;;;;;;;;;;5118528;27;20046;-76
2022/01/27 02:02:54;;;;;;;8.57;6.18;;;;;;;;;;5111732;28;20039;-74
2022/01/27 02:05:22;;;;;;;8.18;6.00;;;;;;;;;;5111534;28;20045;-74
2022/01/27 02:08:13;;;;;;;10.10;6.50;;;;;;;;;;5111747;28;20011;-77
2022/01/27 02:19:08;;;;;;;10.38;6.28;;;;;;;;;;5111801;28;20132;-76
2022/01/27 02:21:34;;;;;;;9.15;6.28;;;;;;;;;;5110270;28;20104;-77
2022/01/27 02:24:00;;;;;;;9.55;6.07;;;;;;;;;;5111534;28;20055;-78
2022/01/27 02:26:26;;;;;;;9.95;6.50;;;;;;;;;;5111423;28;20055;-74
2022/01/27 02:28:52;;;;;;;8.80;6.15;;;;;;;;;;5111669;28;20027;-74
2022/01/27 02:31:18;;;;;;;9.30;6.47;;;;;;;;;;5130474;28;20027;-76
2022/01/27 02:33:43;;;;;;;8.35;5.70;;;;;;;;;;5132462;28;20022;-73
2022/01/27 02:36:09;;;;;;;11.20;6.97;;;;;;;;;;5113919;28;20489;-73
2022/01/27 02:38:35;;;;;;;9.50;6.32;;;;;;;;;;5131748;28;20023;-73
2022/01/27 02:41:03;;;;;;;9.43;6.30;;;;;;;;;;5113557;27;20395;-78
2022/01/27 02:43:29;;;;;;;10.30;6.63;;;;;;;;;;5131693;28;20016;-77
2022/01/27 02:45:55;;;;;;;9.35;5.82;;;;;;;;;;5131995;28;20054;-77
2022/01/27 02:48:21;;;;;;;9.27;6.10;;;;;;;;;;5131591;27;20019;-78
2022/01/27 02:50:47;;;;;;;7.72;5.47;;;;;;;;;;5131999;27;20033;-79
2022/01/27 02:53:13;;;;;;;10.18;6.07;;;;;;;;;;5132128;27;20098;-78
2022/01/27 02:55:39;;;;;;;9.00;6.00;;;;;;;;;;5132056;28;20467;-74
2022/01/27 02:58:05;;;;;;;10.02;6.20;;;;;;;;;;5131798;28;20027;-75
2022/01/27 03:00:32;;;;;;;9.13;6.30;;;;;;;;;;5117820;28;20104;-75
2022/01/27 03:02:58;;;;;;;11.05;6.68;;;;;;;;;;5111135;28;20043;-75
2022/01/27 03:05:24;;;;;;;10.43;6.90;;;;;;;;;;5109639;28;20080;-77
2022/01/27 03:07:50;;;;;;;11.45;6.35;;;;;;;;;;5112948;28;20043;-78
2022/01/27 03:10:17;;;;;;;9.77;6.60;;;;;;;;;;5112937;28;20121;-77
2022/01/27 03:12:43;;;;;;;10.60;6.28;;;;;;;;;;5132013;28;20097;-77
2022/01/27 03:15:11;;;;;;;8.55;5.75;;;;;;;;;;5132146;27;20023;-75
2022/01/27 03:17:37;;;;;;;9.93;6.53;;;;;;;;;;5131435;28;20603;-76
2022/01/27 03:20:03;;;;;;;8.80;6.72;;;;;;;;;;5131646;27;20046;-77
2022/01/27 03:22:29;;;;;;;9.57;6.43;;;;;;;;;;5112842;28;20031;-76
2022/01/27 03:24:55;;;;;;;11.77;6.28;;;;;;;;;;5119845;28;20036;-77
2022/01/27 03:27:25;;;;;;;10.48;7.10;;;;;;;;;;5111343;28;20035;-77
2022/01/27 03:29:51;;;;;;;8.95;6.53;;;;;;;;;;5114888;27;20024;-76
2022/01/27 03:32:17;;;;;;;9.95;7.28;;;;;;;;;;5125320;27;20479;-74
2022/01/27 03:34:43;;;;;;;9.02;6.68;;;;;;;;;;5135457;27;20023;-77
2022/01/27 03:37:09;;;;;;;9.48;6.97;;;;;;;;;;5135362;27;20027;-77
2022/01/27 03:39:37;;;;;;;10.88;7.40;;;;;;;;;;5134847;27;20403;-78
2022/01/27 03:42:04;;;;;;;9.95;6.82;;;;;;;;;;5135119;27;20023;-77
2022/01/27 03:44:30;;;;;;;9.70;6.25;;;;;;;;;;5134447;27;20038;-78
2022/01/27 03:46:56;;;;;;;8.90;6.50;;;;;;;;;;5134892;27;20042;-75
2022/01/27 03:49:23;;;;;;;11.90;7.80;;;;;;;;;;5134634;27;20055;-74
2022/01/27 03:51:49;;;;;;;10.38;7.28;;;;;;;;;;5134797;27;20019;-74
2022/01/27 03:54:15;;;;;;;8.70;6.43;;;;;;;;;;5134570;27;20019;-74
2022/01/27 03:56:42;;;;;;;10.90;7.28;;;;;;;;;;5134971;27;20061;-74
2022/01/27 03:59:08;;;;;;;11.85;7.50;;;;;;;;;;5130867;27;20026;-74
2022/01/27 04:01:34;;;;;;;10.82;7.05;;;;;;;;;;5113542;27;20449;-78
2022/01/27 04:04:01;;;;;;;11.20;7.10;;;;;;;;;;5113671;28;20070;-78
2022/01/27 04:06:36;;;;;;;13.57;7.43;;;;;;;;;;5113739;28;20031;-79
2022/01/27 04:09:06;;;;;;;11.68;7.38;;;;;;;;;;5114019;28;20495;-79
2022/01/27 04:11:32;;;;;;;11.20;7.38;;;;;;;;;;5113708;28;20107;-78
2022/01/27 04:13:58;;;;;;;10.63;7.25;;;;;;;;;;5112436;28;20054;-76
2022/01/27 04:16:25;;;;;;;11.40;7.50;;;;;;;;;;5113564;28;20169;-74
2022/01/27 04:18:51;;;;;;;11.07;7.32;;;;;;;;;;5113752;28;20099;-75
2022/01/27 04:21:17;;;;;;;10.18;7.40;;;;;;;;;;5112206;28;20062;-76
2022/01/27 04:23:43;;;;;;;10.40;7.22;;;;;;;;;;5113819;28;20020;-74
2022/01/27 04:26:11;;;;;;;9.38;7.25;;;;;;;;;;5129088;27;20077;-73
2022/01/27 04:28:38;;;;;;;10.38;7.63;;;;;;;;;;5133800;27;20102;-73
2022/01/27 04:31:07;;;;;;;11.77;7.25;;;;;;;;;;5132665;27;20027;-73
2022/01/27 04:33:35;;;;;;;11.50;7.50;;;;;;;;;;5130405;27;20027;-76
2022/01/27 04:36:07;;;;;;;9.75;6.93;;;;;;;;;;5133952;27;20488;-77
2022/01/27 04:38:40;;;;;;;12.65;7.72;;;;;;;;;;5133579;27;20477;-75
2022/01/27 04:41:17;;;;;;;11.55;7.53;;;;;;;;;;5133755;27;20042;-77
2022/01/27 04:48:49;;;;;;;11.32;8.40;;;;;;;;;;5133821;27;20027;-74
2022/01/27 04:51:18;;;;;;;13.07;8.88;;;;;;;;;;5133407;27;20024;-78
2022/01/27 04:53:48;;;;;;;12.48;8.52;;;;;;;;;;5133550;27;20019;-77
2022/01/27 04:56:15;;;;;;;13.68;8.43;;;;;;;;;;5115335;27;20440;-77
2022/01/27 04:58:44;;;;;;;11.70;8.68;;;;;;;;;;5133584;27;20020;-79
2022/01/27 05:01:10;;;;;;;13.82;8.40;;;16.40;53.80;;;;;;5113166;27;20020;-76
2022/01/27 05:06:31;;;;;;;11.45;8.38;;;;;;;;;;5103221;28;20038;-78
2022/01/27 05:08:57;;;;;;;12.40;8.32;;;;;;;;;;5112662;28;20072;-77
2022/01/27 05:11:28;;;;;;;12.50;9.25;;;;;;;;;;5111110;28;20138;-80
2022/01/27 05:14:02;;;;;;;12.00;8.70;;;;;;;;;;5112675;28;20391;-76
2022/01/27 05:16:28;;;;;;;11.98;8.52;;;;;;;;;;5112243;28;20064;-76
2022/01/27 05:18:54;;;;;;;13.50;8.90;;;;;;;;;;5112547;28;20024;-75
2022/01/27 05:21:20;;;;;;;12.35;8.95;;;;;;;;;;5112057;28;20020;-75
2022/01/27 05:23:46;;;;;;;12.75;9.20;;;;;;;;;;5112478;28;20446;-77
2022/01/27 05:26:12;;;;;;;12.40;8.70;;;;;;;;;;5112713;28;20040;-73
2022/01/27 05:28:39;;;;;;;12.13;8.90;;;;;;;;;;5112641;27;20024;-78
2022/01/27 05:31:05;;;;;;;13.52;9.45;;;;;;;;;;5132950;27;20023;-73
2022/01/27 05:33:31;;;;;;;15.02;9.20;;;;;;;;;;5132584;27;20046;-74
2022/01/27 05:35:57;;;;;;;13.10;9.38;;;;;;;;;;5132809;27;20035;-73
2022/01/27 05:38:23;;;;;;;11.88;8.57;;;;;;;;;;5131987;27;20041;-73
2022/01/27 05:40:49;;;;;;;13.15;8.80;;;;;;;;;;5132237;27;20372;-74
2022/01/27 05:43:15;;;;;;;12.82;8.70;;;;;;;;;;5132399;27;20019;-73
2022/01/27 05:45:41;;;;;;;11.45;8.85;;;;;;;;;;5132838;27;20039;-73
2022/01/27 05:48:08;;;;;;;11.40;8.07;;;;;;;;;;5132645;27;20058;-74
2022/01/27 05:50:34;;;;;;;13.35;9.18;;;;;;;;;;5131581;27;20487;-74
2022/01/27 05:53:00;;;;;;;14.32;9.45;;;;;;;;;;5132520;27;20016;-75
2022/01/27 05:55:26;;;;;;;12.98;8.88;;;;;;;;;;5132288;27;20024;-80
2022/01/27 05:57:53;;;;;;;12.52;9.40;;;;;;;;;;5132495;27;20027;-76
2022/01/27 06:00:19;;;;;;;14.60;9.40;;;;;;;;;;5117945;27;20023;-74
2022/01/27 06:02:45;;;;;;;13.73;8.95;;;;;;;;;;5113437;27;20035;-74
2022/01/27 06:05:11;;;;;;;14.38;9.13;;;;;;;;;;5114060;28;20122;-78
2022/01/27 06:07:37;;;;;;;13.07;8.98;;;;;;;;;;5132070;27;20019;-75
2022/01/27 06:10:04;;;;;;;12.57;8.55;;;;;;;;;;5132293;27;20034;-73
2022/01/27 06:12:30;;;;;;;13.65;9.60;;;;;;;;;;5132080;27;20516;-75
2022/01/27 06:14:56;;;;;;;12.52;8.95;;;;;;;;;;5132323;28;20019;-75
2022/01/27 06:17:22;;;;;;;13.80;9.27;;;;;;;;;;5132114;28;20030;-79
2022/01/27 06:19:48;;;;;;;12.07;9.15;;;;;;;;;;5113848;27;20548;-79
2022/01/27 06:22:15;;;;;;;13.77;9.13;;;;;;;;;;5113646;28;20035;-76
2022/01/27 06:24:42;;;;;;;13.35;9.63;;;;;;;;;;5132615;28;20029;-81
2022/01/27 06:27:08;;;;;;;13.05;8.73;;;;;;;;;;5132501;28;20076;-82
2022/01/27 06:29:34;;;;;;;14.75;9.57;;;;;;;;;;5120834;28;20923;-81
2022/01/27 06:32:00;;;;;;;13.45;9.00;;;;;;;;;;5111831;28;20035;-81
2022/01/27 06:34:26;;;;;;;14.50;8.40;;;;;;;;;;5111393;28;20020;-81
2022/01/27 06:36:52;;;;;;;14.30;9.68;;;;;;;;;;5111767;28;20028;-82
2022/01/27 06:39:18;;;;;;;13.70;9.20;;;;;;;;;;5111316;28;20015;-80
2022/01/27 06:41:45;;;;;;;11.98;8.73;;;;;;;;;;5111610;28;20031;-76
2022/01/27 06:44:11;;;;;;;12.35;8.15;;;;;;;;;;5111649;28;20031;-80
2022/01/27 06:46:37;;;;;;;12.10;8.80;;;;;;;;;;5111289;28;20554;-79
2022/01/27 06:49:04;;;;;;;14.38;9.77;;;;;;;;;;5111102;28;20019;-79
2022/01/27 06:51:30;;;;;;;11.95;8.82;;;;;;;;;;5111203;28;20034;-79
2022/01/27 06:53:57;;;;;;;12.00;8.35;;;;;;;;;;5111348;28;20024;-80
2022/01/27 06:56:23;;;;;;;10.68;8.13;;;;;;;;;;5111151;28;20034;-79
2022/01/27 06:58:49;;;;;;;11.77;8.40;;;;;;;;;;5112594;28;20493;-79
2022/01/27 07:01:15;;;;;;;14.43;8.40;;;;;;;;;;5112116;27;20080;-79
2022/01/27 07:03:41;;;;;;;12.18;7.65;;;;;;;;;;5134530;27;20035;-74
2022/01/27 07:06:07;;;;;;;10.32;7.80;;;;;;;;;;5135703;27;20379;-81
2022/01/27 07:08:33;;;;;;;13.20;8.02;;;;;;;;;;5135390;27;20015;-82
2022/01/27 07:10:59;;;;;;;11.77;7.72;;;;;;;;;;5135532;27;20098;-80
2022/01/27 07:13:25;;;;;;;11.07;7.43;;;;;;;;;;5135343;27;20030;-82
2022/01/27 07:15:51;;;;;;;12.52;8.07;;;;;;;;;;5135402;27;20023;-80
2022/01/27 07:18:17;;;;;;;14.23;8.32;;;;;;;;;;5135186;27;20080;-78
2022/01/27 07:20:44;;;;;;;11.95;7.93;;;;;;;;;;5134927;27;20069;-79
2022/01/27 07:23:11;;;;;;;11.25;7.95;;;;;;;;;;5135469;27;20525;-78
2022/01/27 07:25:37;;;;;;;15.02;8.55;;;;;;;;;;5134899;27;20483;-79
2022/01/27 07:28:03;;;;;;;12.13;8.63;;;;;;;;;;5129216;27;20023;-77
2022/01/27 07:30:29;;;;;;;10.88;8.07;;;;;;;;;;5114577;27;20028;-77
2022/01/27 07:32:55;;;;;;;13.15;9.02;;;;;;;;;;5114586;28;20028;-79
2022/01/27 07:35:21;;;;;;;13.27;8.13;;;;;;;;;;5116787;27;20035;-79
2022/01/27 07:37:48;;;;;;;12.95;8.52;;;;;;;;;;5114472;28;20027;-76
2022/01/27 07:40:14;;;;;;;12.43;9.20;;;;;;;;;;5115808;27;20026;-76
2022/01/27 07:42:40;;;;;;;12.40;9.00;;;;;;;;;;5132016;27;20051;-77
2022/01/27 07:45:07;;;;;;;12.60;8.65;;;;;;;;;;5134891;27;20475;-76
2022/01/27 07:47:34;;;;;;;14.35;9.05;;;;;;;;;;5134632;27;20330;-83
2022/01/27 07:50:00;;;;;;;13.27;9.52;;;;;;;;;;5134922;27;20076;-82
2022/01/27 07:52:26;;;;;;;13.65;9.27;;;;;;;;;;5134689;27;20034;-82
2022/01/27 07:54:52;;;;;;;14.50;8.88;;;;;;;;;;5134764;27;20475;-82
2022/01/27 07:57:18;;;;;;;15.52;9.43;;;;;;;;;;5133944;27;20483;-82
2022/01/27 07:59:44;;;;;;;16.73;9.07;;;;;;;;;;5134888;27;20061;-77
2022/01/27 08:02:10;;;;;;;17.67;10.25;;;;;;;;;;5117360;27;20519;-81
2022/01/27 08:04:37;;;;;;;14.35;8.85;;;;;;;;;;5134327;27;20118;-75
2022/01/27 08:07:04;;;;;;;17.73;10.05;;;;;;;;;;5114090;27;20491;-75
2022/01/27 08:09:30;;;;;;;14.27;8.80;;;;;;;;;;5113803;28;20024;-80
2022/01/27 08:11:57;;;;;;;15.30;8.73;;;;;;;;;;5112458;28;20038;-80
2022/01/27 08:14:23;;;;;;;16.58;9.50;;;;;;;;;;5113142;28;20502;-79
2022/01/27 08:16:49;;;;;;;14.95;8.40;;;;;;;;;;5113607;28;20023;-82
2022/01/27 08:19:15;;;;;;;17.10;9.13;;;;;;;;;;5120259;27;20034;-82
2022/01/27 08:21:42;;;;;;;17.50;9.48;;;;;;;;;;5113732;28;20019;-79
2022/01/27 08:24:08;;;;;;;18.85;8.95;;;;;;;;;;5113611;28;20031;-79
2022/01/27 08:26:45;;;;;;;18.63;9.32;;;;;;;;;;5114732;27;20335;-75
2022/01/27 08:29:18;;;;;;;15.48;9.32;;;;;;;;;;5114049;28;20031;-75
2022/01/27 08:31:56;;;;;;;14.95;9.68;;;;;;;;;;5113785;28;20019;-75
2022/01/27 08:34:35;;;;;;;15.07;9.40;;;;;;;;;;5113216;28;20394;-76
2022/01/27 08:37:02;;;;;;;15.27;8.77;;;;;;;;;;5094931;28;20026;-79
2022/01/27 08:39:28;;;;;;;18.10;9.02;;;;;;;;;;5112984;28;20472;-76
2022/01/27 08:41:55;;;;;;;16.50;8.93;;;;;;;;;;5095033;28;20032;-81
2022/01/27 08:44:21;;;;;;;13.35;7.90;;;;;;;;;;5094516;28;20028;-81
2022/01/27 08:46:47;;;;;;;16.50;8.63;;;;;;;;;;5113136;28;20106;-81
2022/01/27 08:49:13;;;;;;;11.85;7.80;;;;;;;;;;5113545;28;20102;-82
2022/01/27 08:51:40;;;;;;;18.95;8.68;;;;;;;;;;5095124;28;20024;-77
2022/01/27 08:54:06;;;;;;;16.02;7.65;;;;;;;;;;5113074;28;20028;-79
2022/01/27 08:56:32;;;;;;;15.25;8.70;;;;;;;;;;5098151;27;20399;-78
2022/01/27 08:58:58;;;;;;;11.05;7.50;;;;;;;;;;5115069;27;20026;-76
2022/01/27 09:01:26;;;;;;;12.60;7.47;;;;;;;;;;5133128;27;20033;-77
2022/01/27 09:03:53;;;;;;;13.25;7.45;;;;;;;;;;5133219;27;20143;-76
2022/01/27 09:06:19;;;;;;;11.10;7.55;;;;;;;;;;5133157;27;20080;-74
2022/01/27 09:08:45;;;;;;;13.85;7.07;;;;;;;;;;5133304;27;20019;-75
2022/01/27 09:11:12;;;;;;;11.50;6.95;;;;;;;;;;5133508;27;20023;-76
2022/01/27 09:13:38;;;;;;;11.63;7.03;;;;;;;;;;5132927;27;20034;-75
2022/01/27 09:16:08;;;;;;;10.88;7.13;;;;;;;;;;5133242;27;20055;-75
2022/01/27 09:18:34;;;;;;;12.13;6.82;;;;;;;;;;5132791;27;20470;-75
2022/01/27 09:21:05;;;;;;;9.95;6.18;;;;;;;;;;5132975;27;20019;-82
2022/01/27 09:23:33;;;;;;;11.85;7.03;;;;;;;;;;5132903;27;20026;-82
2022/01/27 09:26:04;;;;;;;11.48;6.70;;;;;;;;;;5113716;27;20434;-80
2022/01/27 09:28:31;;;;;;;12.80;7.35;;;;;;;;;;5132062;27;20026;-78
2022/01/27 09:30:57;;;;;;;12.07;6.60;;;;;;;;;;5132824;27;20475;-74
2022/01/27 09:33:23;;;;;;;9.10;5.85;;;;;;;;;;5132438;27;20046;-74
2022/01/27 09:35:49;;;;;;;11.15;6.28;;;;;;;;;;5132822;27;20031;-74
2022/01/27 09:38:16;;;;;;;11.25;5.68;;;;;;;;;;5132586;27;20019;-74
2022/01/27 09:40:47;;;;;;;9.45;6.45;;;;;;;;;;5126498;27;20077;-74
2022/01/27 09:43:14;;;;;;;9.60;5.65;;;;;;;;;;5112557;28;20103;-74
2022/01/27 09:45:40;;;;;;;12.45;5.88;;;;;;;;;;5112319;28;20027;-75
2022/01/27 09:48:15;;;;;;;10.32;6.18;;;;;;;;;;5093801;28;20028;-77
2022/01/27 09:53:09;;;;;;;11.18;5.70;;;;;;;;;;5111926;28;20390;-76
2022/01/27 09:55:35;;;;;;;10.60;5.25;;;;;;;;;;5111810;28;20031;-74
2022/01/27 09:58:01;;;;;;;10.82;5.32;;;;;;;;;;5111827;28;20023;-75
2022/01/27 10:00:28;;;;;;;9.73;5.45;;;;;;;;;;5111792;28;20511;-78
2022/01/27 10:03:01;;;;;;;9.48;5.18;;;;;;;;;;5111755;28;20070;-74
2022/01/27 10:05:28;;;;;;;8.15;5.60;;;;;;;;;;5111622;28;20115;-78
2022/01/27 10:08:01;;;;;;;8.18;5.03;;;;;;;;;;5111881;28;20088;-80
2022/01/27 10:10:27;;;;;;;12.75;5.57;;;;;;;;;;5111655;28;20050;-74
2022/01/27 10:12:55;;;;;;;11.13;5.75;;;;;;;;;;5111924;28;20035;-78
2022/01/27 10:15:23;;;;;;;8.30;4.15;;;;;;;;;;5111465;28;20046;-75
2022/01/27 10:18:06;;;;;;;7.70;4.78;;;;;;;;;;5112563;28;20031;-76
2022/01/27 10:20:32;;;;;;;10.73;5.18;;;;;;;;;;5110284;28;20073;-75
2022/01/27 10:23:17;;;;;;;9.75;5.13;;;;;;;;;;5111718;28;20046;-79
2022/01/27 10:25:50;;;;;;;7.93;4.22;;;;;;;;;;5111832;28;20040;-80
2022/01/27 10:28:31;;;;;;;7.97;4.80;;;;;;;;;;5109992;28;20106;-75
2022/01/27 10:31:19;;;;;;;9.43;4.82;;;;;;;;;;5111732;28;20059;-76
2022/01/27 10:33:46;;;;;;;10.18;4.32;;;;;;;;;;5111396;28;20392;-74
2022/01/27 10:36:16;;;;;;;6.45;4.30;;;;;;;;;;5112120;28;20031;-74
2022/01/27 10:38:42;;;;;;;8.73;4.45;;;;;;;;;;5115990;28;20463;-75
2022/01/27 10:41:08;;;;;;;7.15;3.83;;;;;;;;;;5115606;28;20038;-79
2022/01/27 10:43:35;;;;;;;10.00;4.43;;;;;;;;;;5115470;28;20045;-80
2022/01/27 10:46:13;;;;;;;9.35;3.92;;;;;;;;;;5115591;28;20040;-76
2022/01/27 10:48:47;;;;;;;6.65;3.83;;;;;;;;;;5126656;27;20023;-80
2022/01/27 10:51:52;;;;;;;9.85;4.00;;;;;;;;;;5119683;27;20058;-78
2022/01/27 10:54:19;;;;;;;7.22;4.03;;;;;;;;;;5113029;28;20091;-77
2022/01/27 10:56:46;;;;;;;8.40;4.05;;;;;;;;;;5115164;28;20535;-75
2022/01/27 10:59:17;;;;;;;7.85;4.07;;;;;;;;;;5115397;28;20143;-76
2022/01/27 11:01:44;;;;;;;8.73;4.38;;;;;;;;;;5115643;28;20024;-75
2022/01/27 11:04:12;;;;;;;9.57;4.10;;;;;;;;;;5119768;27;20038;-80
2022/01/27 11:06:52;;;;;;;9.95;4.95;;;;;;;;;;5121965;27;20030;-75
2022/01/27 11:09:18;;;;;;;6.93;3.80;;;;;;;;;;5104310;27;20042;-74
2022/01/27 11:11:45;;;;;;;8.25;4.07;;;;;;;;;;5123715;27;20034;-74
2022/01/27 11:14:11;;;;;;;7.75;3.45;;;;;;;;;;5124903;27;20023;-73
2022/01/27 11:16:40;;;;;;;9.02;3.70;;;;;;;;;;5104169;27;20156;-75
2022/01/27 11:21:50;;;;;;;14.82;4.38;;;;;;;;;;5124537;27;20159;-77
2022/01/27 11:24:31;;;;;;;10.73;5.35;;;;;;;;;;5114302;28;20023;-76
2022/01/27 11:26:59;;;;;;;11.95;4.22;;;;;;;;;;5114830;28;20169;-76
2022/01/27 11:29:26;;;;;;;19.77;5.85;;;;;;;;;;5114468;28;20024;-76
2022/01/27 11:31:58;;;;;;;18.20;5.60;;;;;;;;;;5114611;28;20107;-77
2022/01/27 11:34:43;;;;;;;19.00;5.40;;;;;;;;;;5114279;28;20152;-75
2022/01/27 11:37:09;;;;;;;24.40;6.57;;;;;;;;;;5114676;28;20024;-78
2022/01/27 11:39:48;;;;;;;15.77;5.60;;;;;;;;;;5114445;28;20024;-74
2022/01/27 11:42:14;;;;;;;17.30;4.70;;;;;;;;;;5114205;28;20055;-75
2022/01/27 11:44:43;;;;;;;22.15;5.50;;;;;;;;;;5096160;28;20031;-74
2022/01/27 11:49:53;;;;;;;29.67;6.78;;;;;;;;;;5113373;28;20081;-73
2022/01/27 11:52:20;;;;;;;26.40;6.43;;;;;;;;;;5114062;28;20407;-73
2022/01/27 11:54:46;;;;;;;25.08;6.20;;;;;;;;;;5114358;27;20364;-74
2022/01/27 11:57:31;;;;;;;18.10;5.80;;;;;;;;;;5117121;27;20152;-82
2022/01/27 12:00:11;;;;;;;24.40;6.10;;;;;;;;;;5124179;27;20019;-78
2022/01/27 12:03:04;;;;;;;26.17;5.78;;;;;;;;;;5123536;27;20034;-80
2022/01/27 12:05:34;;;;;;;22.85;5.40;;;;;;;;;;5118286;27;20047;-74
2022/01/27 12:08:12;;;;;;;23.67;5.70;;;;;;;;;;5103718;27;20020;-73
2022/01/27 12:10:49;;;;;;;15.57;5.47;;;;;;;;;;5120742;27;20027;-79
2022/01/27 12:13:34;;;;;;;14.93;5.93;;;;;;;;;;5121567;27;20042;-77
2022/01/27 12:16:23;;;;;;;18.23;6.28;;;;;;;;;;5122369;27;20008;-76
2022/01/27 12:19:00;;;;;;;20.00;6.30;;;;;;;;;;5118649;27;20030;-74
2022/01/27 12:21:29;;;;;;;15.00;6.63;;;;;;;;;;5113628;27;20027;-75
2022/01/27 12:24:14;;;;;;;17.65;5.45;;;;;;;;;;5098988;28;20451;-75
2022/01/27 12:26:54;;;;;;;19.17;6.22;;;;;;;;;;5099815;27;20027;-73
2022/01/27 12:29:24;;;;;;;18.77;6.03;;;;;;;;;;5128222;27;20028;-85
2022/01/27 12:31:51;;;;;;;16.10;6.07;;;;;;;;;;5121991;27;20098;-75
2022/01/27 12:34:17;;;;;;;20.10;6.65;;;;;;;;;;5122822;27;20104;-75
2022/01/27 12:36:55;;;;;;;14.70;5.63;;;;;;;;;;5120845;27;20020;-76
2022/01/27 12:39:22;;;;;;;11.68;4.28;;;17.60;66.00;;;;;;5123718;27;20019;-75
2022/01/27 12:41:50;;;;;;;14.85;4.60;;;17.60;65.80;;;;;;5096672;28;20032;-77
2022/01/27 12:44:16;;;;;;;12.90;4.70;;;17.60;65.80;;;;;;5113373;28;20384;-76
2022/01/27 12:47:05;;;;;;;9.32;4.32;;;17.60;66.20;;;;;;5113547;28;20081;-77
2022/01/27 12:49:36;;;;;;;13.48;5.18;;;17.60;66.50;;;;;;5113012;28;20031;-77
2022/01/27 12:52:06;;;;;;;15.07;4.60;;;17.70;66.80;;;;;;5133022;27;20037;-78
2022/01/27 12:54:33;;;;;;;14.27;4.70;;;17.80;66.50;;;;;;5133981;27;20026;-76
2022/01/27 12:56:59;;;;;;;11.77;4.30;;;17.80;66.10;;;;;;5115272;27;20019;-78
2022/01/27 12:59:31;;;;;;;10.77;4.32;;;17.90;65.60;;;;;;5115059;27;20066;-75
2022/01/27 13:02:04;;;;;;;9.05;3.70;;;18.00;65.20;;;;;;5115272;27;20419;-74
2022/01/27 13:04:31;;;;;;;11.30;4.22;;;18.00;64.40;;;;;;5132763;27;20038;-76
2022/01/27 13:06:58;;;;;;;15.82;4.15;;;18.00;64.60;;;;;;5133372;27;20035;-76
2022/01/27 13:09:26;;;;;;;10.68;3.47;;;17.90;64.60;;;;;;5114735;27;20098;-74
2022/01/27 13:11:54;;;;;;;12.30;3.95;;;17.80;64.40;;;;;;5133257;27;20030;-73
2022/01/27 13:14:20;;;;;;;11.05;3.83;;;17.80;64.20;;;;;;5114435;27;20058;-73
2022/01/27 13:16:53;;;;;;;8.90;3.17;;;17.70;64.20;;;;;;5133301;27;20110;-73
2022/01/27 13:19:29;;;;;;;8.70;3.33;;;17.70;64.10;;;;;;5114189;27;20069;-72
2022/01/27 13:22:02;;;;;;;7.65;3.05;;;17.60;64.10;;;;;;5133165;27;20054;-73
2022/01/27 13:24:31;;;;;;;9.93;3.55;;;17.60;63.90;;;;;;5125744;27;20055;-83
2022/01/27 13:27:05;;;;;;;7.75;3.05;;;17.60;63.80;;;;;;5112364;28;20055;-80
2022/01/27 13:29:42;;;;;;;8.40;3.15;;;17.60;63.80;;;;;;5112255;28;20375;-83
2022/01/27 13:32:09;;;;;;;7.82;3.63;;;17.60;63.70;;;;;;5112324;28;20419;-84
2022/01/27 13:34:40;;;;;;;7.45;3.10;;;17.50;63.70;;;;;;5112093;28;20092;-77
2022/01/27 13:37:05;;;;;;;8.30;3.00;;;17.50;63.60;;;;;;5093875;28;20111;-75
2022/01/27 13:42:17;;;;;;;9.63;3.00;;;17.40;63.90;;;;;;5112115;28;20035;-73
2022/01/27 13:44:57;;;;;;;9.20;3.03;;;17.40;63.40;;;;;;5112395;28;20024;-76
2022/01/27 13:47:33;;;;;;;8.70;3.13;;;17.30;63.40;;;;;;5112063;28;20023;-73
2022/01/27 13:50:08;;;;;;;5.93;2.92;;;17.30;63.40;;;;;;5124164;27;20130;-79
2022/01/27 13:52:42;;;;;;;8.18;3.20;;;17.30;63.50;;;;;;5132366;27;20062;-73
2022/01/27 13:55:11;;;;;;;7.45;3.08;;;17.20;63.50;;;;;;5132455;27;20076;-73
2022/01/27 13:57:48;;;;;;;5.60;2.80;;;17.20;63.60;;;;;;5113966;27;20061;-76
2022/01/27 14:00:17;;;;;;;6.35;2.40;;;17.20;63.50;;;;;;5132851;27;20382;-79
2022/01/27 14:02:45;;;;;;;8.10;2.55;;;17.10;63.50;;;;;;5132942;27;20027;-80
2022/01/27 14:05:21;;;;;;;7.20;2.90;;;17.10;63.60;;;;;;5132889;27;20027;-80
2022/01/27 14:07:58;;;;;;;7.10;2.88;;;17.10;63.50;;;;;;5132539;27;20115;-81
2022/01/27 14:10:39;;;;;;;11.07;3.33;;;17.00;63.50;;;;;;5132237;27;20030;-80
2022/01/27 14:13:10;;;;;;;7.97;3.22;;;17.00;63.50;;;;;;5132288;27;20043;-78
2022/01/27 14:15:45;;;;;;;6.05;2.55;;;17.00;63.50;;;;;;5132155;27;20106;-77
2022/01/27 14:18:16;;;;;;;4.93;2.30;;;16.90;63.50;;;;;;5132080;28;20482;-82
2022/01/27 14:20:57;;;;;;;7.85;2.45;;;17.00;63.60;;;;;;5132659;28;20051;-83
2022/01/27 14:26:36;;;;;;;5.88;2.25;;;16.90;63.60;;;;;;5131738;27;20080;-84
2022/01/27 14:29:07;;;;;;;7.50;2.75;;;16.90;63.60;;;;;;5132151;28;20099;-82
2022/01/27 14:31:34;;;;;;;5.63;2.75;;;16.80;63.60;;;;;;5113455;28;20486;-79
2022/01/27 14:34:00;;;;;;;5.93;2.70;;;16.80;63.60;;;;;;5132251;28;20422;-79
2022/01/27 14:36:25;;;;;;;4.60;2.03;;;16.80;63.80;;;;;;5131810;28;20031;-74
2022/01/27 14:38:52;;;;;;;5.68;2.42;;;16.70;63.70;;;;;;5132009;28;20019;-74
2022/01/27 14:41:20;;;;;;;5.28;2.35;;;16.70;63.90;;;;;;5131729;27;20096;-79
2022/01/27 14:43:46;;;;;;;6.10;2.28;;;16.70;63.80;;;;;;5131986;27;20026;-75
2022/01/27 14:46:15;;;;;;;3.92;1.90;;;;;;;;;;5132196;27;20047;-73
2022/01/27 14:48:45;;;;;;;3.10;1.73;;;;;;;;;;5112865;28;20519;-83
2022/01/27 14:51:13;;;;;;;5.03;2.13;;;;;;;;;;5117534;28;20075;-73
2022/01/27 14:53:39;;;;;;;5.32;2.40;;;;;;;;;;5131845;27;20019;-76
2022/01/27 14:56:06;;;;;;;4.22;1.85;;;;;;;;;;5131929;28;20495;-73
2022/01/27 14:58:33;;;;;;;4.90;2.40;;;;;;;;;;5131609;27;20015;-82
2022/01/27 15:00:59;;;;;;;6.00;2.17;;;;;;;;;;5113527;27;20118;-82
2022/01/27 15:03:25;;;;;;;5.35;2.20;;;;;;;;;;5112993;28;20042;-83
2022/01/27 15:05:51;;;;;;;3.88;1.98;;;;;;;;;;5131783;28;20034;-75
2022/01/27 15:08:17;;;;;;;5.35;2.35;;;;;;;;;;5131555;27;20023;-73
2022/01/27 15:10:43;;;;;;;5.03;2.05;;;;;;;;;;5113711;28;20493;-74
2022/01/27 15:13:11;;;;;;;3.83;2.10;;;16.70;63.90;;;;;;5131119;27;20019;-75
2022/01/27 15:21:06;;;;;;;6.78;1.88;;;16.40;64.20;;;;;;5111387;28;20030;-81
2022/01/27 15:23:35;;;;;;;5.00;2.35;;;16.40;64.20;;;;;;5111510;28;20471;-82
2022/01/27 15:26:02;;;;;;;6.18;2.42;;;16.40;64.20;;;;;;5113362;28;20039;-80